Time;durP1;ratioP1;P1;durP2;ratioP2;P2;SDS_P1;SDS_P2;PMS_P1;PMS_P2;Temp;Humidity;BMP_temperature;BMP_pressure;BME280_temperature;BME280_humidity;BME280_pressure;Samples;Min_cycle;Max_cycle;Signal;HPM_P1;HPM_P2
2022/03/31 00:00:14;;;;;;;336.31;308.71;;;;;;;18.56;45.21;98699.33;;;;-56
2022/03/31 00:03:14;;;;;;;304.41;279.93;;;;;;;18.55;45.18;98696.58;;;;-57
2022/03/31 00:06:14;;;;;;;337.89;309.91;;;;;;;18.54;45.17;98700.34;;;;-56
2022/03/31 00:09:14;;;;;;;321.68;295.51;;;;;;;18.53;45.15;98700.44;;;;-57
2022/03/31 00:12:14;;;;;;;330.43;303.47;;;;;;;18.52;45.22;98696.39;;;;-57
2022/03/31 00:15:14;;;;;;;334.19;306.81;;;;;;;18.51;45.19;98692.43;;;;-57
2022/03/31 00:18:14;;;;;;;332.19;304.89;;;;;;;18.49;45.21;98689.39;;;;-57
2022/03/31 00:21:15;;;;;;;346.18;317.57;;;;;;;18.48;45.17;98688.98;;;;-57
2022/03/31 00:24:14;;;;;;;349.35;320.29;;;;;;;18.47;45.18;98688.30;;;;-59
2022/03/31 00:27:14;;;;;;;321.45;295.31;;;;;;;18.47;45.19;98687.65;;;;-60
2022/03/31 00:30:14;;;;;;;341.87;313.64;;;;;;;18.46;45.23;98682.05;;;;-60
2022/03/31 00:33:14;;;;;;;334.49;306.98;;;;;;;18.45;45.20;98678.69;;;;-59
2022/03/31 00:36:14;;;;;;;352.10;322.95;;;;;;;18.45;45.18;98682.31;;;;-60
2022/03/31 00:39:32;;;;;;;343.11;314.77;;;;;;;18.44;45.18;98676.42;;;;-57
2022/03/31 00:42:15;;;;;;;335.34;307.74;;;;;;;18.43;45.20;98681.38;;;;-57
2022/03/31 00:45:14;;;;;;;316.79;291.07;;;;;;;18.42;45.19;98675.41;;;;-57
2022/03/31 00:48:15;;;;;;;335.42;307.81;;;;;;;18.41;45.19;98671.69;;;;-57
2022/03/31 00:51:14;;;;;;;337.51;309.77;;;;;;;18.40;45.19;98667.16;;;;-57
2022/03/31 00:54:14;;;;;;;314.95;289.39;;;;;;;18.39;45.18;98666.62;;;;-56
2022/03/31 00:57:14;;;;;;;319.41;293.53;;;;;;;18.38;45.18;98663.70;;;;-56
2022/03/31 01:00:14;;;;;;;335.35;307.78;;;;;;;18.37;45.17;98662.77;;;;-57
2022/03/31 01:03:14;;;;;;;355.57;326.09;;;;;;;18.37;45.16;98658.89;;;;-58
2022/03/31 01:06:14;;;;;;;366.87;336.13;;;;;;;18.36;45.18;98662.28;;;;-60
2022/03/31 01:09:14;;;;;;;336.63;308.91;;;;;;;18.35;45.18;98660.05;;;;-56
2022/03/31 01:12:14;;;;;;;371.75;340.49;;;;;;;18.35;45.17;98655.19;;;;-57
2022/03/31 01:15:14;;;;;;;366.57;335.79;;;;;;;18.34;45.20;98645.47;;;;-60
2022/03/31 01:18:14;;;;;;;383.49;351.01;;;;;;;18.32;45.21;98638.86;;;;-60
2022/03/31 01:21:14;;;;;;;358.81;328.91;;;;;;;18.32;45.19;98638.86;;;;-57
2022/03/31 01:24:15;;;;;;;402.07;367.59;;;;;;;18.30;45.22;98637.84;;;;-57
2022/03/31 01:27:14;;;;;;;405.02;370.35;;;;;;;18.30;45.20;98634.19;;;;-56
2022/03/31 01:30:14;;;;;;;421.77;385.41;;;;;;;18.29;45.17;98635.66;;;;-56
2022/03/31 01:33:14;;;;;;;432.83;395.38;;;;;;;18.27;45.23;98633.27;;;;-58
2022/03/31 01:36:14;;;;;;;444.70;406.19;;;;;;;18.26;45.17;98637.75;;;;-59
2022/03/31 01:39:14;;;;;;;428.61;391.64;;;;;;;18.26;45.22;98637.59;;;;-59
2022/03/31 01:42:14;;;;;;;426.92;390.28;;;;;;;18.26;45.18;98637.81;;;;-57
2022/03/31 01:45:14;;;;;;;465.16;424.71;;;;;;;18.25;45.15;98637.92;;;;-57
2022/03/31 01:48:14;;;;;;;433.50;396.04;;;;;;;18.23;45.20;98636.41;;;;-60
2022/03/31 01:51:14;;;;;;;419.64;383.57;;;;;;;18.23;45.13;98633.34;;;;-59
2022/03/31 01:54:14;;;;;;;414.80;379.04;;;;;;;18.22;45.14;98628.09;;;;-56
2022/03/31 01:57:14;;;;;;;430.10;392.99;;;;;;;18.22;45.18;98628.31;;;;-56
2022/03/31 02:00:14;;;;;;;416.17;380.40;;;;;;;18.21;45.10;98628.35;;;;-59
2022/03/31 02:03:14;;;;;;;432.47;394.98;;;;;;;18.21;45.13;98626.16;;;;-59
2022/03/31 02:06:14;;;;;;;427.94;390.89;;;;;;;18.19;45.16;98625.61;;;;-56
2022/03/31 02:09:14;;;;;;;483.33;441.28;;;;;;;18.19;45.19;98622.95;;;;-55
2022/03/31 02:12:14;;;;;;;497.65;454.07;;;;;;;18.17;45.14;98619.33;;;;-55
2022/03/31 02:15:14;;;;;;;480.45;438.64;;;;;;;18.17;45.15;98621.04;;;;-60
2022/03/31 02:18:14;;;;;;;480.80;438.72;;;;;;;18.16;45.20;98619.44;;;;-59
2022/03/31 02:21:15;;;;;;;459.36;419.29;;;;;;;18.16;45.18;98619.51;;;;-59
2022/03/31 02:24:14;;;;;;;477.57;435.99;;;;;;;18.16;45.18;98619.34;;;;-59
2022/03/31 02:27:14;;;;;;;480.41;438.47;;;;;;;18.15;45.14;98616.86;;;;-60
2022/03/31 02:30:14;;;;;;;505.28;460.73;;;;;;;18.14;45.15;98615.41;;;;-58
2022/03/31 02:33:14;;;;;;;483.28;440.79;;;;;;;18.14;45.23;98613.91;;;;-56
2022/03/31 02:36:14;;;;;;;478.91;437.05;;;;;;;18.13;45.15;98612.17;;;;-58
2022/03/31 02:39:14;;;;;;;454.44;415.09;;;;;;;18.12;45.12;98605.56;;;;-59
2022/03/31 02:42:14;;;;;;;464.41;424.03;;;;;;;18.12;45.17;98599.33;;;;-59
2022/03/31 02:45:14;;;;;;;540.13;491.55;;;;;;;18.11;45.14;98597.73;;;;-57
2022/03/31 02:48:14;;;;;;;456.28;416.53;;;;;;;18.10;45.18;98591.66;;;;-60
2022/03/31 02:51:14;;;;;;;504.47;460.15;;;;;;;18.10;45.11;98590.54;;;;-59
2022/03/31 02:57:14;;;;;;;438.51;400.45;;;;;;;18.08;45.14;98592.50;;;;-57
2022/03/31 03:00:14;;;;;;;427.41;390.38;;;;;;;18.08;45.13;98591.71;;;;-57
2022/03/31 03:03:14;;;;;;;434.45;396.71;;;;;;;18.07;45.14;98588.06;;;;-57
2022/03/31 03:06:14;;;;;;;459.07;419.18;;;;;;;18.06;45.19;98587.10;;;;-56
2022/03/31 03:09:14;;;;;;;471.66;430.51;;;;;;;18.06;45.13;98584.20;;;;-59
2022/03/31 03:12:14;;;;;;;462.44;421.85;;;;;;;18.05;45.16;98581.63;;;;-60
2022/03/31 03:15:14;;;;;;;442.49;403.91;;;;;;;18.06;45.16;98576.83;;;;-57
2022/03/31 03:18:15;;;;;;;445.56;406.91;;;;;;;18.05;45.14;98574.16;;;;-57
2022/03/31 03:21:14;;;;;;;415.69;379.87;;;;;;;18.03;45.15;98567.39;;;;-57
2022/03/31 03:24:14;;;;;;;454.15;414.66;;;;;;;18.03;45.12;98564.97;;;;-59
2022/03/31 03:27:14;;;;;;;429.37;392.05;;;;;;;18.03;45.12;98558.80;;;;-57
2022/03/31 03:30:14;;;;;;;417.85;381.77;;;;;;;18.02;45.12;98557.28;;;;-60
2022/03/31 03:33:14;;;;;;;412.82;377.12;;;;;;;18.01;45.10;98558.84;;;;-60
2022/03/31 03:36:16;;;;;;;436.44;398.59;;;;;;;18.00;45.11;98551.08;;;;-59
2022/03/31 03:39:14;;;;;;;418.51;382.43;;;;;;;18.01;45.10;98553.08;;;;-57
2022/03/31 03:42:14;;;;;;;418.70;382.47;;;;;;;18.00;45.16;98553.17;;;;-60
2022/03/31 03:45:14;;;;;;;411.68;376.17;;;;;;;17.99;45.11;98551.64;;;;-59
2022/03/31 03:48:14;;;;;;;411.00;375.45;;;;;;;17.98;45.13;98548.84;;;;-59
2022/03/31 03:51:14;;;;;;;437.07;399.27;;;;;;;17.97;45.06;98546.51;;;;-60
2022/03/31 03:54:15;;;;;;;400.23;365.78;;;;;;;17.97;45.08;98548.05;;;;-59
2022/03/31 03:57:14;;;;;;;400.35;366.11;;;;;;;17.97;45.12;98548.61;;;;-59
2022/03/31 04:00:14;;;;;;;384.95;352.21;;;;;;;17.97;45.10;98550.48;;;;-57
2022/03/31 04:03:14;;;;;;;395.65;361.87;;;;;;;17.95;45.12;98543.39;;;;-57
2022/03/31 04:06:14;;;;;;;379.88;347.63;;;;;;;17.95;45.10;98538.84;;;;-60
2022/03/31 04:09:14;;;;;;;372.95;341.40;;;;;;;17.93;45.13;98532.81;;;;-60
2022/03/31 04:12:14;;;;;;;375.47;343.66;;;;;;;17.94;45.10;98525.91;;;;-60
2022/03/31 04:15:14;;;;;;;353.55;323.99;;;;;;;17.93;45.06;98526.16;;;;-59
2022/03/31 04:18:14;;;;;;;381.15;348.81;;;;;;;17.93;45.09;98520.81;;;;-59
2022/03/31 04:21:14;;;;;;;382.45;350.02;;;;;;;17.92;45.07;98519.77;;;;-59
2022/03/31 04:24:14;;;;;;;396.73;362.79;;;;;;;17.92;45.04;98523.59;;;;-56
2022/03/31 04:27:14;;;;;;;389.39;356.11;;;;;;;17.92;45.03;98526.99;;;;-59
2022/03/31 04:30:18;;;;;;;385.16;352.28;;;;;;;17.91;45.05;98520.28;;;;-60
2022/03/31 04:33:14;;;;;;;385.68;352.97;;;;;;;17.90;45.09;98517.55;;;;-57
2022/03/31 04:36:14;;;;;;;381.51;349.01;;;;;;;17.90;45.09;98516.82;;;;-57
2022/03/31 04:39:14;;;;;;;372.69;341.24;;;;;;;17.89;45.06;98516.52;;;;-59
2022/03/31 04:42:14;;;;;;;354.22;324.69;;;;;;;17.88;45.03;98518.95;;;;-59
2022/03/31 04:45:14;;;;;;;351.23;321.95;;;;;;;17.88;45.06;98521.13;;;;-59
2022/03/31 04:48:14;;;;;;;364.34;333.73;;;;;;;17.89;44.98;98521.63;;;;-59
2022/03/31 04:51:14;;;;;;;367.29;336.37;;;;;;;17.90;45.00;98520.13;;;;-60
2022/03/31 04:54:14;;;;;;;373.73;342.23;;;;;;;17.90;45.00;98521.84;;;;-55
2022/03/31 04:57:14;;;;;;;348.83;319.89;;;;;;;17.90;45.04;98522.82;;;;-57
2022/03/31 05:00:14;;;;;;;376.96;344.99;;;;;;;17.90;45.04;98519.23;;;;-57
2022/03/31 05:03:14;;;;;;;360.43;330.25;;;;;;;17.91;44.98;98522.08;;;;-57
2022/03/31 05:06:15;;;;;;;356.51;326.77;;;;;;;17.91;44.94;98516.64;;;;-58
2022/03/31 05:09:14;;;;;;;365.55;335.01;;;;;;;17.92;44.98;98516.12;;;;-57
2022/03/31 05:12:14;;;;;;;362.45;332.13;;;;;;;17.93;44.98;98512.14;;;;-57
2022/03/31 05:15:14;;;;;;;370.97;339.73;;;;;;;17.94;44.93;98512.05;;;;-59
2022/03/31 05:18:14;;;;;;;360.57;330.39;;;;;;;17.94;44.90;98508.57;;;;-59
2022/03/31 05:21:14;;;;;;;369.27;338.34;;;;;;;17.95;44.92;98511.80;;;;-60
2022/03/31 05:24:14;;;;;;;358.98;328.93;;;;;;;17.95;44.95;98513.32;;;;-59
2022/03/31 05:27:14;;;;;;;368.43;337.59;;;;;;;17.96;44.89;98513.22;;;;-57
2022/03/31 05:30:14;;;;;;;381.91;349.47;;;;;;;17.97;44.86;98512.23;;;;-56
2022/03/31 05:33:14;;;;;;;336.83;309.14;;;;;;;17.97;44.91;98517.00;;;;-59
2022/03/31 05:36:14;;;;;;;348.19;319.29;;;;;;;17.97;44.91;98519.45;;;;-58
2022/03/31 05:39:14;;;;;;;381.68;349.40;;;;;;;17.98;44.87;98523.64;;;;-58
2022/03/31 05:42:14;;;;;;;370.49;339.39;;;;;;;17.98;44.89;98522.99;;;;-58
2022/03/31 05:45:14;;;;;;;371.56;340.32;;;;;;;17.98;44.89;98528.97;;;;-56
2022/03/31 05:48:14;;;;;;;372.43;341.11;;;;;;;17.98;44.88;98525.66;;;;-59
2022/03/31 05:51:14;;;;;;;408.43;373.42;;;;;;;17.99;44.88;98524.25;;;;-59
2022/03/31 05:54:14;;;;;;;389.47;356.28;;;;;;;17.98;44.83;98522.58;;;;-57
2022/03/31 05:57:14;;;;;;;400.45;366.32;;;;;;;17.99;44.83;98518.84;;;;-59
2022/03/31 06:00:14;;;;;;;414.52;378.87;;;;;;;17.99;44.82;98516.23;;;;-59
2022/03/31 06:03:15;;;;;;;426.80;389.93;;;;;;;17.98;44.82;98516.91;;;;-57
2022/03/31 06:06:14;;;;;;;420.36;384.13;;;;;;;17.98;44.87;98518.61;;;;-57
2022/03/31 06:09:14;;;;;;;425.09;388.41;;;;;;;17.98;44.87;98517.48;;;;-57
2022/03/31 06:12:14;;;;;;;426.27;389.37;;;;;;;17.97;44.79;98520.25;;;;-57
2022/03/31 06:15:15;;;;;;;445.48;406.86;;;;;;;17.97;44.83;98519.53;;;;-56
2022/03/31 06:18:15;;;;;;;435.57;397.84;;;;;;;17.97;44.86;98517.41;;;;-60
2022/03/31 06:21:14;;;;;;;456.13;416.61;;;;;;;17.97;44.84;98520.23;;;;-59
2022/03/31 06:24:14;;;;;;;458.02;418.25;;;;;;;17.96;44.84;98521.39;;;;-59
2022/03/31 06:27:14;;;;;;;416.11;380.33;;;;;;;17.96;44.82;98519.30;;;;-57
2022/03/31 06:30:14;;;;;;;440.76;402.59;;;;;;;17.95;44.85;98524.27;;;;-57
2022/03/31 06:33:14;;;;;;;428.88;391.84;;;;;;;17.95;44.75;98523.84;;;;-57
2022/03/31 06:36:14;;;;;;;442.47;404.17;;;;;;;17.94;44.78;98521.27;;;;-60
2022/03/31 06:39:14;;;;;;;423.98;387.37;;;;;;;17.94;44.79;98520.30;;;;-59
2022/03/31 06:42:14;;;;;;;415.25;379.41;;;;;;;17.94;44.83;98515.61;;;;-59
2022/03/31 06:45:15;;;;;;;413.08;377.52;;;;;;;17.94;44.77;98512.20;;;;-60
2022/03/31 06:48:14;;;;;;;427.98;390.96;;;;;;;17.94;44.81;98512.38;;;;-59
2022/03/31 06:51:14;;;;;;;428.67;391.33;;;;;;;17.93;44.77;98514.42;;;;-59
2022/03/31 06:54:14;;;;;;;424.25;387.59;;;;;;;17.93;44.69;98518.08;;;;-59
2022/03/31 06:57:14;;;;;;;421.64;385.27;;;;;;;17.93;44.79;98512.89;;;;-59
2022/03/31 07:00:14;;;;;;;425.88;389.05;;;;;;;17.92;44.74;98513.13;;;;-59
2022/03/31 07:03:14;;;;;;;440.67;402.27;;;;;;;17.92;44.75;98515.41;;;;-57
2022/03/31 07:06:14;;;;;;;436.79;398.96;;;;;;;17.91;44.78;98517.45;;;;-57
2022/03/31 07:09:14;;;;;;;425.64;388.83;;;;;;;17.91;44.79;98522.80;;;;-59
2022/03/31 07:12:14;;;;;;;436.32;398.69;;;;;;;17.91;44.77;98519.39;;;;-60
2022/03/31 07:15:14;;;;;;;439.94;401.62;;;;;;;17.91;44.75;98516.06;;;;-57
2022/03/31 07:18:14;;;;;;;420.90;384.61;;;;;;;17.91;44.71;98510.66;;;;-59
2022/03/31 07:21:14;;;;;;;415.37;379.65;;;;;;;17.90;44.68;98507.42;;;;-59
2022/03/31 07:24:14;;;;;;;443.43;404.78;;;;;;;17.90;44.79;98507.52;;;;-60
2022/03/31 07:27:15;;;;;;;425.35;388.52;;;;;;;17.88;44.78;98507.52;;;;-57
2022/03/31 07:30:15;;;;;;;437.05;399.18;;;;;;;17.90;44.71;98505.97;;;;-59
2022/03/31 07:33:14;;;;;;;426.39;389.48;;;;;;;17.89;44.72;98503.06;;;;-59
2022/03/31 07:36:14;;;;;;;444.79;406.38;;;;;;;17.89;44.70;98504.22;;;;-56
2022/03/31 07:39:14;;;;;;;434.04;396.47;;;;;;;17.89;44.66;98504.61;;;;-57
2022/03/31 07:42:14;;;;;;;428.65;391.51;;;;;;;17.90;44.64;98503.78;;;;-56
2022/03/31 07:45:14;;;;;;;420.12;383.83;;;;;;;17.89;44.71;98498.85;;;;-57
2022/03/31 07:48:16;;;;;;;399.30;365.00;;;;;;;17.89;44.71;98499.19;;;;-56
2022/03/31 07:51:14;;;;;;;428.07;390.97;;;;;;;17.88;44.70;98495.84;;;;-59
2022/03/31 07:54:14;;;;;;;424.45;387.76;;;;;;;17.88;44.66;98496.98;;;;-59
2022/03/31 07:57:14;;;;;;;433.93;396.25;;;;;;;17.89;44.67;98494.56;;;;-60
2022/03/31 08:00:14;;;;;;;414.13;378.46;;;;;;;17.88;44.70;98492.45;;;;-60
2022/03/31 08:03:14;;;;;;;433.86;396.32;;;;;;;17.89;44.67;98487.59;;;;-60
2022/03/31 08:06:14;;;;;;;393.43;359.78;;;;;;;17.88;44.65;98482.81;;;;-58
2022/03/31 08:09:17;;;;;;;464.47;423.06;;;;;;;17.81;43.21;98483.02;;;;-61
2022/03/31 08:12:14;;;;;;;36.89;34.15;;;;;;;17.73;42.73;98482.11;;;;-59
2022/03/31 08:15:15;;;;;;;14.43;13.24;;;;;;;17.62;42.51;98485.15;;;;-60
2022/03/31 08:18:14;;;;;;;9.29;8.35;;;;;;;17.54;42.26;98483.52;;;;-62
2022/03/31 08:21:14;;;;;;;8.43;7.37;;;;;;;17.47;42.27;98485.00;;;;-58
2022/03/31 08:24:15;;;;;;;8.20;7.19;;;;;;;17.42;42.35;98481.84;;;;-57
2022/03/31 08:27:14;;;;;;;13.23;7.67;;;;;;;17.36;42.64;98482.51;;;;-57
2022/03/31 08:30:16;;;;;;;10.59;6.29;;;;;;;17.43;43.09;98485.22;;;;-55
2022/03/31 08:33:14;;;;;;;6.57;5.66;;;;;;;17.48;43.41;98484.87;;;;-55
2022/03/31 08:36:14;;;;;;;7.02;5.35;;;;;;;17.55;43.70;98487.58;;;;-53
2022/03/31 08:39:15;;;;;;;8.17;4.57;;;;;;;17.64;44.16;98486.80;;;;-56
2022/03/31 08:42:14;;;;;;;7.11;4.67;;;;;;;17.69;44.24;98487.52;;;;-56
2022/03/31 08:45:14;;;;;;;8.01;4.33;;;;;;;17.76;44.41;98496.85;;;;-56
2022/03/31 08:48:14;;;;;;;7.29;4.87;;;;;;;17.85;44.56;98494.64;;;;-57
2022/03/31 08:51:14;;;;;;;5.11;4.34;;;;;;;17.91;44.72;98494.28;;;;-52
2022/03/31 08:54:14;;;;;;;4.61;4.17;;;;;;;17.97;44.74;98493.83;;;;-55
2022/03/31 08:57:14;;;;;;;6.12;4.76;;;;;;;18.04;44.90;98495.88;;;;-50
2022/03/31 09:00:14;;;;;;;5.59;5.03;;;;;;;18.10;44.82;98490.27;;;;-51
2022/03/31 09:03:14;;;;;;;6.98;6.44;;;;;;;18.17;44.99;98483.95;;;;-50
2022/03/31 09:06:14;;;;;;;9.70;9.02;;;;;;;18.23;45.03;98480.38;;;;-57
2022/03/31 09:09:16;;;;;;;14.25;13.31;;;;;;;18.27;44.96;98484.23;;;;-50
2022/03/31 09:12:19;;;;;;;13.57;12.48;;;;;;;18.32;45.05;98479.38;;;;-50
2022/03/31 09:15:15;;;;;;;9.02;8.37;;;;;;;18.37;44.86;98480.06;;;;-49
2022/03/31 09:18:14;;;;;;;9.75;9.05;;;;;;;18.43;44.92;98476.87;;;;-54
2022/03/31 09:21:15;;;;;;;6.75;6.31;;;;;;;18.48;45.07;98475.69;;;;-54
2022/03/31 09:24:14;;;;;;;12.07;11.01;;;;;;;18.55;45.14;98467.77;;;;-53
2022/03/31 09:27:14;;;;;;;15.67;14.19;;;;;;;18.56;44.82;98468.45;;;;-51
2022/03/31 09:30:15;;;;;;;8.45;7.61;;;;;;;18.62;44.97;98464.63;;;;-57
2022/03/31 09:33:14;;;;;;;8.46;7.71;;;;;;;18.63;44.69;98458.32;;;;-57
2022/03/31 09:36:14;;;;;;;14.97;13.77;;;;;;;18.65;44.58;98454.08;;;;-57
2022/03/31 09:39:17;;;;;;;17.87;15.05;;;;;;;18.70;44.67;98453.16;;;;-55
2022/03/31 09:42:14;;;;;;;20.59;18.94;;;;;;;18.68;44.11;98450.69;;;;-57
2022/03/31 09:45:14;;;;;;;11.55;10.52;;;;;;;18.70;44.42;98450.48;;;;-57
2022/03/31 09:48:14;;;;;;;9.27;8.65;;;;;;;18.73;44.34;98450.34;;;;-59
2022/03/31 09:51:14;;;;;;;8.89;8.29;;;;;;;18.75;44.30;98449.95;;;;-57
2022/03/31 09:54:14;;;;;;;24.71;22.99;;;;;;;18.77;44.56;98448.95;;;;-60
2022/03/31 09:57:14;;;;;;;23.71;21.97;;;;;;;18.77;44.64;98449.16;;;;-55
2022/03/31 10:00:14;;;;;;;33.15;30.70;;;;;;;18.79;44.63;98448.84;;;;-52
2022/03/31 10:03:14;;;;;;;63.36;59.16;;;;;;;18.81;44.22;98445.06;;;;-52
2022/03/31 10:06:14;;;;;;;453.93;415.18;;;;;;;18.83;44.12;98445.34;;;;-57
2022/03/31 10:09:14;;;;;;;595.71;542.93;;;;;;;18.85;44.22;98447.56;;;;-57
2022/03/31 10:12:14;;;;;;;557.13;508.23;;;;;;;18.87;44.27;98445.33;;;;-53
2022/03/31 10:15:14;;;;;;;496.35;453.51;;;;;;;18.89;44.03;98444.89;;;;-54
2022/03/31 10:18:14;;;;;;;414.68;379.21;;;;;;;18.90;44.07;98439.01;;;;-53
2022/03/31 10:21:15;;;;;;;492.62;450.11;;;;;;;18.92;44.21;98436.13;;;;-54
2022/03/31 10:27:14;;;;;;;536.95;489.79;;;;;;;18.94;44.08;98426.48;;;;-54
2022/03/31 10:30:14;;;;;;;446.73;408.27;;;;;;;18.96;43.98;98426.27;;;;-53
2022/03/31 10:33:14;;;;;;;434.33;397.13;;;;;;;18.97;43.98;98419.70;;;;-54
2022/03/31 10:36:14;;;;;;;446.18;407.70;;;;;;;18.98;44.02;98421.28;;;;-54
2022/03/31 10:39:14;;;;;;;459.40;419.71;;;;;;;19.00;44.03;98423.37;;;;-53
2022/03/31 10:42:14;;;;;;;536.27;489.52;;;;;;;19.01;44.02;98426.98;;;;-54
2022/03/31 10:45:14;;;;;;;598.18;545.35;;;;;;;19.03;44.02;98423.54;;;;-55
2022/03/31 10:48:14;;;;;;;507.17;463.23;;;;;;;19.04;44.00;98422.76;;;;-55
2022/03/31 10:51:14;;;;;;;480.29;438.81;;;;;;;19.05;44.00;98421.20;;;;-54
2022/03/31 10:54:14;;;;;;;443.03;405.01;;;;;;;19.06;43.87;98417.12;;;;-54
2022/03/31 10:57:15;;;;;;;451.99;413.13;;;;;;;19.08;44.00;98417.55;;;;-54
2022/03/31 11:00:14;;;;;;;490.55;448.34;;;;;;;19.09;44.03;98419.14;;;;-58
2022/03/31 11:03:14;;;;;;;495.37;452.54;;;;;;;19.11;44.05;98415.21;;;;-61
2022/03/31 11:06:14;;;;;;;494.29;451.30;;;;;;;19.11;43.86;98413.09;;;;-60
2022/03/31 11:09:14;;;;;;;445.82;407.29;;;;;;;19.10;43.95;98412.56;;;;-61
2022/03/31 11:12:14;;;;;;;419.35;383.49;;;;;;;19.12;44.08;98411.30;;;;-54
2022/03/31 11:15:14;;;;;;;424.62;388.23;;;;;;;19.13;44.04;98408.16;;;;-58
2022/03/31 11:18:14;;;;;;;426.99;390.35;;;;;;;19.14;43.99;98403.05;;;;-58
2022/03/31 11:21:14;;;;;;;437.04;399.48;;;;;;;19.14;43.88;98399.14;;;;-55
2022/03/31 11:24:14;;;;;;;423.23;386.89;;;;;;;19.15;43.95;98397.16;;;;-54
2022/03/31 11:27:14;;;;;;;446.07;407.81;;;;;;;19.15;43.93;98392.53;;;;-56
2022/03/31 11:30:14;;;;;;;435.05;397.65;;;;;;;19.15;43.93;98395.63;;;;-55
2022/03/31 11:33:14;;;;;;;441.16;403.17;;;;;;;19.14;43.91;98391.42;;;;-57
2022/03/31 11:36:17;;;;;;;474.31;433.65;;;;;;;19.14;43.91;98390.95;;;;-57
2022/03/31 11:39:14;;;;;;;462.53;422.73;;;;;;;19.13;43.87;98383.17;;;;-57
2022/03/31 11:42:14;;;;;;;470.82;430.41;;;;;;;19.13;43.86;98382.11;;;;-56
2022/03/31 11:45:14;;;;;;;455.73;416.65;;;;;;;19.12;43.83;98380.13;;;;-58
2022/03/31 11:48:14;;;;;;;472.44;431.43;;;;;;;19.10;43.82;98379.84;;;;-58
2022/03/31 11:51:15;;;;;;;496.54;453.81;;;;;;;19.10;43.82;98375.31;;;;-57
2022/03/31 11:54:14;;;;;;;442.83;404.80;;;;;;;19.08;43.84;98372.26;;;;-54
2022/03/31 11:57:15;;;;;;;480.09;438.71;;;;;;;19.07;43.83;98372.53;;;;-53
2022/03/31 12:00:14;;;;;;;464.91;424.73;;;;;;;19.05;43.82;98370.70;;;;-54
2022/03/31 12:03:15;;;;;;;390.03;356.73;;;;;;;19.04;43.80;98370.39;;;;-55
2022/03/31 12:06:16;;;;;;;410.01;374.91;;;;;;;19.04;43.79;98369.27;;;;-58
2022/03/31 12:09:14;;;;;;;401.41;367.11;;;;;;;19.03;43.77;98364.77;;;;-57
2022/03/31 12:12:14;;;;;;;444.43;406.11;;;;;;;19.02;43.77;98360.23;;;;-58
2022/03/31 12:15:14;;;;;;;405.54;370.77;;;;;;;19.00;43.77;98358.64;;;;-55
2022/03/31 12:18:14;;;;;;;422.66;386.58;;;;;;;18.98;43.76;98351.39;;;;-55
2022/03/31 12:21:14;;;;;;;409.45;374.63;;;;;;;18.96;43.77;98350.38;;;;-55
2022/03/31 12:24:14;;;;;;;399.96;366.09;;;;;;;18.96;43.76;98350.72;;;;-54
2022/03/31 12:27:14;;;;;;;419.16;383.35;;;;;;;18.94;43.75;98350.77;;;;-55
2022/03/31 12:30:15;;;;;;;429.45;392.73;;;;;;;18.92;43.76;98349.36;;;;-55
2022/03/31 12:33:14;;;;;;;407.43;372.82;;;;;;;18.92;43.77;98345.22;;;;-54
2022/03/31 12:36:14;;;;;;;422.71;386.57;;;;;;;18.90;43.76;98343.88;;;;-51
2022/03/31 12:39:14;;;;;;;418.71;382.89;;;;;;;18.88;43.75;98344.36;;;;-57
2022/03/31 12:42:15;;;;;;;431.52;394.50;;;;;;;18.88;43.76;98342.48;;;;-54
2022/03/31 12:45:14;;;;;;;399.24;365.30;;;;;;;18.85;43.77;98337.85;;;;-54
2022/03/31 12:48:14;;;;;;;426.62;390.07;;;;;;;18.84;43.80;98338.03;;;;-58
2022/03/31 12:51:14;;;;;;;411.95;376.87;;;;;;;18.83;43.78;98342.70;;;;-58
2022/03/31 12:54:14;;;;;;;408.31;373.52;;;;;;;18.80;43.78;98344.07;;;;-57
2022/03/31 12:57:14;;;;;;;410.27;375.32;;;;;;;18.79;43.79;98344.89;;;;-56
2022/03/31 13:00:14;;;;;;;406.69;371.97;;;;;;;18.77;43.79;98342.41;;;;-57
2022/03/31 13:03:14;;;;;;;440.38;402.47;;;;;;;18.76;43.80;98341.70;;;;-59
2022/03/31 13:06:14;;;;;;;422.81;386.42;;;;;;;18.74;43.79;98335.27;;;;-58
2022/03/31 13:09:14;;;;;;;411.59;376.41;;;;;;;18.73;43.84;98332.11;;;;-58
2022/03/31 13:12:14;;;;;;;435.33;397.91;;;;;;;18.73;43.81;98333.49;;;;-58
2022/03/31 13:15:16;;;;;;;423.17;386.76;;;;;;;18.71;43.83;98329.91;;;;-56
2022/03/31 13:18:14;;;;;;;447.57;408.71;;;;;;;18.70;43.82;98319.40;;;;-57
2022/03/31 13:21:14;;;;;;;406.53;371.89;;;;;;;18.67;43.84;98315.70;;;;-56
2022/03/31 13:24:15;;;;;;;391.79;358.58;;;;;;;18.66;43.84;98315.49;;;;-57
2022/03/31 13:27:14;;;;;;;436.45;398.88;;;;;;;18.65;43.88;98313.50;;;;-52
2022/03/31 13:30:14;;;;;;;417.13;381.58;;;;;;;18.64;43.87;98316.79;;;;-54
2022/03/31 13:33:14;;;;;;;429.48;392.64;;;;;;;18.63;43.88;98316.55;;;;-57
2022/03/31 13:36:14;;;;;;;414.40;378.99;;;;;;;18.61;43.85;98314.25;;;;-57
2022/03/31 13:39:15;;;;;;;434.57;397.19;;;;;;;18.60;43.90;98310.80;;;;-51
2022/03/31 13:42:14;;;;;;;434.41;397.07;;;;;;;18.58;43.90;98314.30;;;;-51
2022/03/31 13:45:14;;;;;;;458.59;419.09;;;;;;;18.57;43.90;98314.99;;;;-53
2022/03/31 13:48:14;;;;;;;413.65;378.13;;;;;;;18.57;43.93;98317.98;;;;-58
2022/03/31 13:51:14;;;;;;;538.04;490.69;;;;;;;18.54;43.92;98319.13;;;;-58
2022/03/31 13:54:14;;;;;;;580.43;528.75;;;;;;;18.53;43.93;98321.42;;;;-58
2022/03/31 14:02:15;;;;;;;556.90;506.37;;;;;;;18.51;43.95;98319.19;;;;-57
2022/03/31 14:05:14;;;;;;;502.60;458.84;;;;;;;18.49;43.96;98314.37;;;;-54
2022/03/31 14:08:14;;;;;;;540.49;492.68;;;;;;;18.48;43.96;98316.84;;;;-54
2022/03/31 14:11:14;;;;;;;537.46;489.81;;;;;;;18.46;43.99;98310.22;;;;-58
2022/03/31 14:14:15;;;;;;;555.59;505.95;;;;;;;18.47;44.16;98312.08;;;;-54
2022/03/31 14:17:14;;;;;;;570.41;519.53;;;;;;;18.47;44.49;98307.44;;;;-53
2022/03/31 14:20:14;;;;;;;582.13;530.40;;;;;;;18.48;44.55;98306.78;;;;-58
2022/03/31 14:23:14;;;;;;;560.38;510.19;;;;;;;18.49;44.69;98304.16;;;;-56
2022/03/31 14:26:14;;;;;;;566.32;515.51;;;;;;;18.53;44.83;98302.91;;;;-60
2022/03/31 14:29:14;;;;;;;578.94;527.62;;;;;;;18.56;44.82;98302.19;;;;-59
2022/03/31 14:32:14;;;;;;;584.91;533.03;;;;;;;18.58;44.96;98298.56;;;;-52
2022/03/31 14:35:14;;;;;;;581.90;530.15;;;;;;;18.60;44.78;98295.31;;;;-51
2022/03/31 14:38:14;;;;;;;585.05;533.05;;;;;;;18.61;44.63;98290.73;;;;-59
2022/03/31 14:41:14;;;;;;;586.37;534.32;;;;;;;18.64;44.46;98290.72;;;;-58
2022/03/31 14:44:14;;;;;;;598.12;545.18;;;;;;;18.68;44.56;98287.32;;;;-49
2022/03/31 14:47:14;;;;;;;595.90;542.88;;;;;;;18.71;44.78;98293.48;;;;-57
2022/03/31 14:50:14;;;;;;;106.69;99.42;;;;;;;18.72;44.61;98290.79;;;;-56
2022/03/31 14:53:15;;;;;;;106.19;98.96;;;;;;;18.77;44.68;98288.63;;;;-55
2022/03/31 14:56:14;;;;;;;114.31;106.49;;;;;;;18.84;44.69;98288.06;;;;-59
2022/03/31 14:59:14;;;;;;;104.51;97.44;;;;;;;18.87;44.40;98287.75;;;;-59
2022/03/31 15:02:14;;;;;;;99.45;92.73;;;;;;;18.90;44.46;98286.42;;;;-58
2022/03/31 15:05:14;;;;;;;107.20;99.79;;;;;;;18.93;44.33;98285.06;;;;-58
2022/03/31 15:08:14;;;;;;;106.97;99.61;;;;;;;18.96;44.22;98283.29;;;;-58
2022/03/31 15:17:16;;;;;;;582.27;531.09;;;;;;;19.05;44.18;98287.67;;;;-59
2022/03/31 15:20:14;;;;;;;580.50;529.59;;;;;;;19.07;44.25;98288.27;;;;-58
2022/03/31 15:23:14;;;;;;;575.25;524.55;;;;;;;19.09;44.19;98288.22;;;;-58
2022/03/31 15:26:14;;;;;;;575.29;524.77;;;;;;;19.11;44.24;98284.84;;;;-59
2022/03/31 15:29:14;;;;;;;571.29;521.34;;;;;;;19.12;44.26;98286.91;;;;-59
2022/03/31 15:32:14;;;;;;;447.89;409.28;;;;;;;19.14;44.27;98287.02;;;;-59
2022/03/31 15:35:14;;;;;;;482.39;440.81;;;;;;;19.15;44.15;98282.92;;;;-59
2022/03/31 15:38:14;;;;;;;429.84;392.96;;;;;;;19.16;44.14;98281.52;;;;-56
2022/03/31 15:41:14;;;;;;;440.79;403.01;;;;;;;19.17;44.07;98284.91;;;;-56
2022/03/31 15:44:14;;;;;;;435.37;398.09;;;;;;;19.19;44.16;98285.91;;;;-58
2022/03/31 15:47:14;;;;;;;434.30;396.98;;;;;;;19.20;44.03;98283.88;;;;-58
2022/03/31 15:50:14;;;;;;;466.83;426.67;;;;;;;19.21;44.13;98287.95;;;;-59
2022/03/31 15:53:14;;;;;;;446.43;408.06;;;;;;;19.23;44.02;98290.12;;;;-59
2022/03/31 15:56:14;;;;;;;430.76;393.91;;;;;;;19.24;44.01;98292.13;;;;-59
2022/03/31 15:59:14;;;;;;;469.37;429.02;;;;;;;19.25;44.03;98292.50;;;;-59
2022/03/31 16:02:14;;;;;;;473.81;433.10;;;;;;;19.31;44.52;98296.30;;;;-52
2022/03/31 16:05:14;;;;;;;488.23;445.42;;;;;;;19.34;44.35;98296.95;;;;-54
2022/03/31 16:08:14;;;;;;;516.39;471.25;;;;;;;19.35;44.66;98299.53;;;;-53
2022/03/31 16:11:14;;;;;;;550.20;502.07;;;;;;;19.41;44.71;98301.33;;;;-56
2022/03/31 16:14:14;;;;;;;495.70;452.84;;;;;;;19.45;44.98;98305.25;;;;-55
2022/03/31 16:17:14;;;;;;;556.65;508.13;;;;;;;19.46;44.86;98304.23;;;;-58
2022/03/31 16:20:14;;;;;;;585.53;533.71;;;;;;;19.49;45.05;98305.70;;;;-58
2022/03/31 16:24:15;;;;;;;473.54;432.55;;;;;;;19.54;45.35;98301.98;;;;-62